Terminal Aerodrome Forecast
Issued by NWS Paducah, KY

Home | Current Version | Previous Version | Text Only | Print | Product List | Glossary On
Versions: 1 2 3 4 5 6 7 8 9 10 11 12 13 14 15
000
FTUS43 KPAH 181100
TAFEVV
TAF
KEVV 181140Z 1812/1912 02003KT P6SM SCT015 OVC050
     FM182300 VRB02KT P6SM OVC040=

USA.gov is the U.S. government's official web portal to all federal, state and local government web resources and services.